Time;durP1;ratioP1;P1;durP2;ratioP2;P2;SDS_P1;SDS_P2;PMS_P1;PMS_P2;Temp;Humidity;BMP_temperature;BMP_pressure;BME280_temperature;BME280_humidity;BME280_pressure;Samples;Min_cycle;Max_cycle;Signal;HPM_P1;HPM_P2
2023/10/13 00:00:36;;;;;;;17.13;10.55;;;;;;;;;;5000264;28;25071;-73
2023/10/13 00:03:02;;;;;;;18.85;12.25;;;;;;;;;;4996348;28;25056;-74
2023/10/13 00:05:30;;;;;;;18.77;12.38;;;;;;;;;;4997510;28;25055;-74
2023/10/13 00:07:56;;;;;;;20.80;12.98;;;;;;;;;;4997224;28;25137;-73
2023/10/13 00:10:22;;;;;;;19.38;12.75;;;;;;;;;;4979499;28;25096;-74
2023/10/13 00:12:51;;;;;;;19.05;13.68;;;;;;;;;;4998696;28;25075;-72
2023/10/13 00:15:20;;;;;;;20.17;13.77;;;;;;;;;;4994178;28;25081;-72
2023/10/13 00:17:46;;;;;;;21.30;13.10;;;;;;;;;;4989957;28;25053;-74
2023/10/13 00:20:35;;;;;;;22.60;13.80;;;;;;;;;;4998061;28;25063;-73
2023/10/13 00:23:06;;;;;;;17.77;12.20;;;;;;;;;;4996447;28;25069;-73
2023/10/13 00:25:43;;;;;;;21.20;12.55;;;;;;;;;;4976967;28;25060;-74
2023/10/13 00:28:09;;;;;;;20.00;12.52;;;;;;;;;;4992043;28;25054;-74
2023/10/13 00:30:36;;;;;;;16.52;11.35;;;;;;;;;;4998881;28;25071;-73
2023/10/13 00:33:04;;;;;;;23.00;11.70;;;;;;;;;;4995614;28;25074;-73
2023/10/13 00:35:42;;;;;;;18.77;11.30;;;;;;;;;;4998650;28;25068;-75
2023/10/13 00:38:14;;;;;;;16.83;9.20;;;;;;;;;;4994542;28;25499;-74
2023/10/13 00:40:42;;;;;;;16.33;9.07;;;;;;;;;;5001123;28;25073;-74
2023/10/13 00:46:18;;;;;;;21.98;9.00;;;;;;;;;;4989449;28;25068;-72
2023/10/13 00:48:54;;;;;;;21.80;8.63;;;;;;;;;;4995512;28;25059;-74
2023/10/13 00:51:34;;;;;;;17.13;8.18;;;;;;;;;;4987249;28;25084;-73
2023/10/13 00:54:06;;;;;;;14.57;7.60;;;;;;;;;;4996796;28;25060;-76
2023/10/13 00:56:32;;;;;;;12.47;5.87;;;;;;;;;;4994238;28;25063;-74
2023/10/13 00:59:02;;;;;;;14.15;6.70;;;;;;;;;;4999388;28;25141;-72
2023/10/13 01:01:29;;;;;;;13.15;6.63;;;;;;;;;;4998581;28;25097;-73
2023/10/13 01:03:59;;;;;;;17.75;6.63;;;;;;;;;;4996393;28;25092;-72
2023/10/13 01:06:25;;;;;;;17.52;7.15;;;;;;;;;;4994750;28;25064;-73
2023/10/13 01:08:57;;;;;;;11.55;7.22;;;;;;;;;;4984003;28;25062;-73
2023/10/13 01:11:23;;;;;;;18.05;7.75;;;;;;;;;;4991487;28;25073;-72
2023/10/13 01:13:53;;;;;;;15.35;7.63;;;;;;;;;;4991589;28;25060;-72
2023/10/13 01:16:23;;;;;;;16.48;6.97;;;;;;;;;;4981420;28;25069;-73
2023/10/13 01:18:50;;;;;;;15.88;8.25;;;;;;;;;;4998201;28;25079;-70
2023/10/13 01:21:20;;;;;;;26.70;9.35;;;;;;;;;;4993038;28;25139;-73
2023/10/13 01:23:47;;;;;;;17.65;8.98;;;;;;;;;;4994677;28;25064;-72
2023/10/13 01:26:21;;;;;;;16.83;7.90;;;;;;;;;;4976779;28;25101;-74
2023/10/13 01:28:48;;;;;;;20.65;8.20;;;;;;;;;;4991346;28;25072;-73
2023/10/13 01:31:26;;;;;;;17.40;9.05;;;;;;;;;;4990816;28;25054;-73
2023/10/13 01:33:58;;;;;;;17.60;8.90;;;;;;;;;;4991303;28;25175;-73
2023/10/13 01:36:24;;;;;;;;;;;;;;;;;;4992476;28;25094;-71
2023/10/13 01:38:51;;;;;;;15.50;8.40;;;;;;;;;;4996585;28;25112;-70
2023/10/13 01:41:18;;;;;;;12.90;7.45;;;;;;;;;;4996705;28;25077;-70
2023/10/13 01:43:44;;;;;;;18.35;8.77;;;;;;;;;;4976800;28;25057;-72
2023/10/13 01:46:13;;;;;;;12.40;7.80;;;;;;;;;;4998555;28;25071;-73
2023/10/13 01:48:39;;;;;;;17.60;8.75;;;;;;;;;;4999722;28;25066;-74
2023/10/13 01:51:09;;;;;;;19.55;9.32;;;;;;;;;;4993116;28;25054;-72
2023/10/13 01:53:36;;;;;;;16.63;8.55;;;;;;;;;;4995976;28;25148;-75
2023/10/13 01:56:05;;;;;;;13.82;7.65;;;;;;;;;;4997901;28;25071;-73
2023/10/13 01:58:33;;;;;;;11.32;7.78;;;;;;;;;;4996592;28;25095;-73
2023/10/13 02:00:59;;;;;;;15.07;8.35;;;;;;;;;;4996052;28;25133;-72
2023/10/13 02:03:29;;;;;;;13.52;8.18;;;;;;;;;;4994318;28;25084;-72
2023/10/13 02:05:58;;;;;;;21.05;8.77;;;;;;;;;;4988758;28;25146;-73
2023/10/13 02:08:24;;;;;;;17.02;7.50;;;;;;;;;;4995377;28;25072;-73
2023/10/13 02:10:55;;;;;;;16.75;8.40;;;;;;;;;;4989764;28;25065;-73
2023/10/13 02:13:22;;;;;;;22.48;8.70;;;;;;;;;;4973065;28;25154;-72
2023/10/13 02:15:51;;;;;;;16.20;7.68;;;;;;;;;;4996865;28;25075;-74
2023/10/13 02:18:25;;;;;;;20.33;8.70;;;;;;;;;;4996046;28;25066;-73
2023/10/13 02:20:54;;;;;;;17.20;8.10;;;;;;;;;;4993393;28;25117;-73
2023/10/13 02:23:25;;;;;;;15.63;9.27;;;;;;;;;;4975179;28;25065;-72
2023/10/13 02:26:00;;;;;;;20.77;9.23;;;;;;;;;;4996305;28;25060;-73
2023/10/13 02:28:30;;;;;;;16.38;8.18;;;;;;;;;;4994889;28;25079;-74
2023/10/13 02:30:57;;;;;;;13.98;8.80;;;;;;;;;;4992280;28;25061;-74
2023/10/13 02:33:29;;;;;;;13.80;8.45;;;;;;;;;;4993654;28;25084;-73
2023/10/13 02:35:55;;;;;;;;;;;;;;;;;;4977548;28;25087;-72
2023/10/13 02:41:18;;;;;;;17.58;8.82;;;;;;;;;;4990671;28;25098;-72
2023/10/13 02:43:44;;;;;;;17.83;8.73;;;;;;;;;;4993832;28;25077;-73
2023/10/13 02:46:10;;;;;;;14.63;6.88;;;;;;;;;;4986521;28;25063;-72
2023/10/13 02:48:40;;;;;;;15.82;7.78;;;;;;;;;;4990570;28;25103;-73
2023/10/13 02:51:15;;;;;;;12.80;7.38;;;;;;;;;;4990452;28;25086;-71
2023/10/13 02:53:41;;;;;;;17.83;9.07;;;;;;;;;;4988989;28;25050;-74
2023/10/13 02:56:07;;;;;;;16.83;7.40;;;;;;;;;;4981872;28;25183;-74
2023/10/13 02:58:43;;;;;;;15.00;7.55;;;;;;;;;;4993570;28;25136;-73
2023/10/13 03:01:16;;;;;;;16.33;7.68;;;;;;;;;;4991269;28;25065;-75
2023/10/13 03:03:43;;;;;;;21.45;8.73;;;;;;;;;;4989730;28;25058;-73
2023/10/13 03:06:11;;;;;;;20.52;8.88;;;;;;;;;;4998945;28;25154;-75
2023/10/13 03:08:38;;;;;;;18.30;8.05;;;;;;;;;;4991321;28;25152;-74
2023/10/13 03:11:05;;;;;;;18.73;8.13;;;;;;;;;;4991493;28;25394;-73
2023/10/13 03:13:33;;;;;;;17.13;8.65;;;;;;;;;;4991036;28;25089;-75
2023/10/13 03:15:59;;;;;;;14.88;7.93;;;;;;;;;;4975080;28;25072;-73
2023/10/13 03:18:25;;;;;;;14.57;8.32;;;;;;;;;;4992086;28;25071;-74
2023/10/13 03:20:57;;;;;;;16.13;7.07;;;;;;;;;;4997988;28;25056;-74
2023/10/13 03:23:25;;;;;;;18.88;9.27;;;;;;;;;;4973042;28;25047;-73
2023/10/13 03:25:55;;;;;;;18.52;9.13;;;;;;;;;;4973398;28;25066;-73
2023/10/13 03:28:25;;;;;;;16.63;8.63;;;;;;;;;;4993755;28;25055;-75
2023/10/13 03:30:53;;;;;;;22.17;9.27;;;;;;;;;;4973868;28;25061;-76
2023/10/13 03:33:29;;;;;;;21.85;9.60;;;;;;;;;;4994711;28;25062;-74
2023/10/13 03:35:59;;;;;;;18.38;9.40;;;;;;;;;;4997524;28;25066;-74
2023/10/13 03:38:27;;;;;;;16.20;9.73;;;;;;;;;;4995408;28;25067;-74
2023/10/13 03:40:56;;;;;;;21.23;9.52;;;;;;;;;;4997733;28;25060;-74
2023/10/13 03:43:23;;;;;;;20.52;8.73;;;;;;;;;;4994574;28;25072;-74
2023/10/13 03:46:00;;;;;;;22.70;9.80;;;;;;;;;;4992569;28;25063;-76
2023/10/13 03:51:01;;;;;;;20.48;10.02;;;;;;;;;;4991482;28;25060;-75
2023/10/13 03:53:33;;;;;;;23.10;10.50;;;;;;;;;;4988748;28;25064;-74
2023/10/13 03:56:08;;;;;;;22.27;10.55;;;;;;;;;;4992278;28;25097;-72
2023/10/13 03:58:45;;;;;;;23.63;10.98;;;;;;;;;;4989281;28;25075;-76
2023/10/13 04:01:15;;;;;;;16.85;9.45;;;;;;;;;;4982211;28;25065;-75
2023/10/13 04:03:57;;;;;;;25.05;11.27;;;;;;;;;;4988537;28;25056;-75
2023/10/13 04:17:14;;;;;;;21.00;11.52;;;;;;;;;;4990980;28;25073;-76
2023/10/13 04:23:17;;;;;;;15.25;11.43;;;;;;;;;;4996031;28;25164;-77
2023/10/13 04:33:52;;;;;;;21.52;15.02;;;;;;;;;;4995028;28;25048;-74
2023/10/13 04:39:00;;;;;;;26.48;17.65;;;;;;;;;;4992677;28;25164;-75
2023/10/13 04:41:42;;;;;;;26.33;16.98;;;;;;;;;;4997400;28;25052;-76
2023/10/13 05:03:30;;;;;;;15.73;8.63;;;;;;;;;;4946158;28;25307;-74
2023/10/13 05:46:49;;;;;;;14.48;7.07;;;;;;;;;;5006238;28;25050;-77
2023/10/13 05:51:57;;;;;;;18.05;8.15;;;;;;;;;;5005384;28;25042;-76
2023/10/13 06:30:14;;;;;;;15.93;10.23;;;;;;;;;;5006656;28;25057;-77
2023/10/13 06:32:40;;;;;;;21.17;11.98;;;;;;;;;;4979781;28;25066;-80
2023/10/13 06:35:28;;;;;;;19.75;12.00;;;;;;;;;;4992770;28;25109;-76
2023/10/13 06:37:53;;;;;;;18.73;14.00;;;;;;;;;;4997088;28;25062;-75
2023/10/13 06:40:25;;;;;;;22.63;14.57;;;;;;;;;;5005107;28;25074;-75
2023/10/13 06:42:53;;;;;;;;;;;;;;;;;;5002420;28;25067;-77
2023/10/13 06:45:19;;;;;;;23.35;15.13;;;;;;;;;;4995132;28;25054;-79
2023/10/13 06:47:45;;;;;;;21.60;14.13;;;;;;;;;;5005079;28;25107;-76
2023/10/13 06:50:15;;;;;;;21.42;13.40;;;;;;;;;;4989948;28;25071;-76
2023/10/13 06:52:44;;;;;;;18.65;12.45;;;;;;;;;;5009951;28;25095;-74
2023/10/13 06:55:16;;;;;;;18.33;12.30;;;;;;;;;;4994413;28;25158;-76
2023/10/13 06:57:44;;;;;;;20.02;10.20;;;;;;;;;;4992099;28;25076;-73
2023/10/13 07:00:19;;;;;;;21.92;10.48;;;;;;;;;;5003918;28;25098;-74
2023/10/13 07:02:46;;;;;;;20.35;9.52;;;;;;;;;;4988614;28;25054;-73
2023/10/13 07:05:13;;;;;;;17.77;8.85;;;;;;;;;;5000835;28;25073;-74
2023/10/13 07:07:40;;;;;;;27.30;11.20;;;;;;;;;;5005031;28;25079;-76
2023/10/13 07:10:12;;;;;;;19.02;10.95;;;;;;;;;;4997224;28;25054;-77
2023/10/13 07:12:43;;;;;;;16.67;8.32;;;;;;;;;;5002937;28;25055;-75
2023/10/13 07:15:19;;;;;;;20.00;9.85;;;;;;;;;;4985295;28;25080;-75
2023/10/13 07:17:54;;;;;;;15.73;9.38;;;;;;;;;;5008250;28;25064;-75
2023/10/13 07:23:03;;;;;;;21.23;8.25;;;;;;;;;;5000128;28;25076;-75
2023/10/13 07:25:32;;;;;;;18.42;8.07;;;;;;;;;;5000072;28;25088;-75
2023/10/13 07:28:08;;;;;;;19.15;9.23;;;;;;;;;;4974681;28;25141;-74
2023/10/13 07:30:41;;;;;;;20.35;9.60;;;;;;;;;;4981324;28;25089;-73
2023/10/13 07:33:13;;;;;;;24.42;8.40;;;;;;;;;;4999512;28;25140;-76
2023/10/13 07:35:39;;;;;;;21.47;9.33;;;;;;;;;;4998826;28;25062;-75
2023/10/13 07:38:07;;;;;;;21.23;7.75;;;;;;;;;;4982542;28;25069;-72
2023/10/13 07:43:08;;;;;;;21.83;8.82;;;;;;;;;;4997765;28;25061;-73
2023/10/13 07:45:36;;;;;;;18.58;8.65;;;;;;;;;;4995409;28;25091;-75
2023/10/13 07:48:12;;;;;;;20.80;8.70;;;;;;;;;;4997630;28;25062;-74
2023/10/13 07:50:38;;;;;;;15.93;7.10;;;;;;;;;;4995025;28;25065;-73
2023/10/13 07:53:22;;;;;;;23.63;8.25;;;;;;;;;;4984750;28;25067;-71
2023/10/13 07:55:53;;;;;;;21.23;8.88;;;;;;;;;;5008398;28;25058;-74
2023/10/13 07:58:19;;;;;;;19.60;7.93;;;;;;;;;;5009224;28;25075;-76
2023/10/13 08:05:58;;;;;;;18.20;8.10;;;;;;;;;;4993146;28;25145;-77
2023/10/13 08:08:35;;;;;;;22.80;8.35;;;;;;;;;;4994836;28;25063;-73
2023/10/13 08:11:08;;;;;;;18.33;7.40;;;;;;;;;;4992935;28;25084;-75
2023/10/13 08:13:36;;;;;;;24.73;9.15;;;;;;;;;;4988494;28;25053;-75
2023/10/13 08:16:09;;;;;;;15.60;7.63;;;;;;;;;;4991516;28;25128;-75
2023/10/13 08:18:36;;;;;;;18.00;7.53;;;;;;;;;;4971416;28;25118;-75
2023/10/13 08:21:03;;;;;;;22.33;7.47;;;;;;;;;;4991389;28;25041;-75
2023/10/13 08:26:30;;;;;;;16.50;6.80;;;;;;;;;;4992434;28;25053;-74
2023/10/13 08:32:04;;;;;;;15.88;6.30;;;;;;;;;;4991862;28;25162;-77
2023/10/13 08:34:38;;;;;;;11.23;5.82;;;;;;;;;;4990684;28;25068;-75
2023/10/13 08:37:23;;;;;;;18.95;6.50;;;;;;;;;;4977585;28;25113;-73
2023/10/13 08:39:58;;;;;;;16.92;6.45;;;;;;;;;;4980865;28;25060;-74
2023/10/13 08:53:32;;;;;;;19.35;6.88;;;;;;;;;;4991209;28;25054;-74
2023/10/13 08:56:33;;;;;;;15.45;5.90;;;;;;;;;;4989879;28;25150;-74
2023/10/13 08:59:05;;;;;;;19.85;6.38;;;;;;;;;;4992547;28;25059;-71
2023/10/13 09:04:22;;;;;;;19.67;6.63;;;;;;;;;;4979324;28;25068;-74
2023/10/13 09:09:34;;;;;;;27.15;7.18;;;;;;;;;;4986869;28;25081;-71
2023/10/13 09:12:09;;;;;;;27.90;6.82;;;;;;;;;;4985484;28;25077;-75
2023/10/13 09:14:44;;;;;;;13.88;6.75;;;;;;;;;;4992242;28;25070;-73
2023/10/13 09:18:12;;;;;;;13.25;6.07;;;;;;;;;;4992266;28;25109;-72
2023/10/13 09:19:59;;;;;;;15.60;6.05;;;;;;;;;;4976561;28;25078;-74
2023/10/13 09:22:35;;;;;;;15.68;6.05;;;;;;;;;;4977358;28;25121;-74
2023/10/13 09:25:04;;;;;;;15.55;6.82;;;;;;;;;;4987678;28;25088;-75
2023/10/13 09:27:33;;;;;;;11.63;5.97;;;;;;;;;;5000573;28;25155;-73
2023/10/13 09:30:20;;;;;;;18.92;6.50;;;;;;;;;;4983141;28;25111;-73
2023/10/13 09:32:45;;;;;;;14.40;6.07;;;;;;;;;;4986412;28;25065;-73
2023/10/13 09:35:22;;;;;;;12.68;5.50;;;;;;;;;;4970548;28;25059;-72
2023/10/13 09:37:50;;;;;;;15.32;6.20;;;;;;;;;;4990032;28;25109;-75
2023/10/13 09:40:27;;;;;;;24.33;6.80;;;;;;;;;;4995496;28;25079;-74
2023/10/13 09:42:56;;;;;;;17.25;6.32;;;;;;;;;;4971511;28;25074;-74
2023/10/13 09:45:27;;;;;;;18.20;5.53;;;;;;;;;;4975353;28;25065;-76
2023/10/13 09:47:53;;;;;;;17.07;5.67;;;;;;;;;;4992090;28;25089;-76
2023/10/13 09:50:26;;;;;;;14.55;5.80;;;;;;;;;;4992646;28;25098;-74
2023/10/13 09:52:52;;;;;;;12.65;6.15;;;;;;;;;;4996823;28;25087;-74
2023/10/13 09:55:18;;;;;;;19.23;6.05;;;;;;;;;;4998157;28;25098;-71
2023/10/13 09:57:48;;;;;;;15.35;6.13;;;;;;;;;;4995045;28;25101;-75
2023/10/13 10:00:36;;;;;;;16.90;6.00;;;;;;;;;;4976515;28;25077;-71
2023/10/13 10:03:15;;;;;;;16.88;6.28;;;;;;;;;;4973255;28;25079;-74
2023/10/13 10:05:59;;;;;;;16.50;6.00;;;;;;;;;;4987848;28;25576;-74
2023/10/13 10:08:38;;;;;;;17.63;5.47;;;;;;;;;;4995448;28;25176;-73
2023/10/13 10:11:07;;;;;;;19.48;5.68;;;;;;;;;;4992200;28;25056;-73
2023/10/13 10:13:50;;;;;;;11.52;5.75;;;;;;;;;;4993515;28;25074;-73
2023/10/13 10:16:22;;;;;;;21.30;6.80;;;;;;;;;;4977906;28;25158;-77
2023/10/13 10:19:02;;;;;;;15.48;6.07;;;;;;;;;;4992970;28;25054;-74
2023/10/13 10:21:35;;;;;;;16.52;5.97;;;;;;;;;;4982536;28;25062;-74
2023/10/13 10:24:08;;;;;;;20.10;6.78;;;;;;;;;;4990496;28;25074;-73
2023/10/13 10:26:33;;;;;;;16.50;6.80;;;;;;;;;;4992856;28;25057;-73
2023/10/13 10:29:07;;;;;;;16.92;6.53;;;;;;;;;;4988744;28;25150;-72
2023/10/13 10:31:42;;;;;;;17.77;5.60;;;;;;;;;;4980747;28;25056;-71
2023/10/13 10:34:14;;;;;;;11.57;5.57;;;;;;;;;;4998489;28;25167;-74
2023/10/13 10:36:42;;;;;;;13.60;5.68;;;;;;;;;;4999791;28;25071;-73
2023/10/13 10:39:11;;;;;;;12.88;5.40;;;;;;;;;;4993542;28;25049;-72
2023/10/13 10:41:45;;;;;;;21.23;6.60;;;;;;;;;;4996357;28;25101;-73
2023/10/13 10:45:05;;;;;;;15.93;5.68;;;;;;;;;;4969422;28;25056;-75
2023/10/13 10:47:19;;;;;;;14.55;6.10;;;;;;;;;;4979378;28;25155;-73
2023/10/13 10:49:46;;;;;;;17.30;5.80;;;;;;;;;;4988718;28;25133;-74
2023/10/13 10:52:18;;;;;;;13.80;5.55;;;;;;;;;;4990278;28;25088;-73
2023/10/13 10:54:51;;;;;;;16.60;6.28;;;;;;;;;;4995737;28;25045;-73
2023/10/13 10:57:17;;;;;;;17.65;5.65;;;;;;;;;;4993343;28;25071;-72
2023/10/13 10:59:46;;;;;;;13.55;5.25;;;;;;;;;;5002916;28;25107;-74
2023/10/13 11:02:18;;;;;;;17.42;6.18;;;;;;;;;;5003495;28;25104;-72
2023/10/13 11:04:55;;;;;;;;;;;;;;;;;;5000762;28;25097;-74
2023/10/13 11:07:23;;;;;;;20.35;6.18;;;;;;;;;;4999484;28;24083;-72
2023/10/13 11:09:52;;;;;;;17.80;5.82;;;;;;;;;;5003785;28;25110;-71
2023/10/13 11:12:25;;;;;;;16.67;6.18;;;;;;;;;;4997442;28;25085;-71
2023/10/13 11:15:14;;;;;;;13.48;6.18;;;;;;;;;;5003050;28;25086;-74
2023/10/13 11:17:50;;;;;;;13.30;5.45;;;;;;;;;;4999042;28;25076;-73
2023/10/13 11:20:17;;;;;;;17.55;6.60;;;;;;;;;;4997276;28;25049;-76
2023/10/13 11:22:47;;;;;;;19.75;6.50;;;;;;;;;;5002352;28;25080;-73
2023/10/13 11:25:37;;;;;;;18.38;6.60;;;;;;;;;;4999756;28;25087;-75
2023/10/13 11:28:29;;;;;;;21.70;5.72;;;;;;;;;;5001170;28;25073;-72
2023/10/13 11:30:58;;;;;;;16.00;6.20;;;;;;;;;;4989956;28;25069;-72
2023/10/13 11:33:28;;;;;;;19.40;6.53;;;;;;;;;;4991452;28;25199;-71
2023/10/13 11:35:55;;;;;;;18.60;6.47;;;;;;;;;;5000106;28;25051;-76
2023/10/13 11:38:27;;;;;;;22.75;7.25;;;;;;;;;;4994537;28;25059;-73
2023/10/13 11:43:26;;;;;;;18.00;6.40;;;;;;;;;;4992852;28;25155;-75
2023/10/13 11:45:55;;;;;;;23.23;7.40;;;;;;;;;;4996537;28;25197;-73
2023/10/13 11:48:37;;;;;;;14.85;7.13;;;;;;;;;;4995056;28;25151;-72
2023/10/13 11:51:24;;;;;;;20.65;6.25;;;;;;;;;;5003604;28;25072;-75
2023/10/13 11:53:53;;;;;;;19.77;6.10;;;;;;;;;;5006015;28;25050;-73
2023/10/13 11:56:22;;;;;;;22.25;5.65;;;;;;;;;;4991015;28;25098;-73
2023/10/13 11:58:49;;;;;;;19.75;6.35;;;;;;;;;;5001289;28;25068;-73
2023/10/13 12:11:44;;;;;;;18.85;5.65;;;;;;;;;;4997763;28;25074;-72
2023/10/13 12:14:21;;;;;;;15.60;6.57;;;;;;;;;;4990244;28;25065;-72
2023/10/13 12:16:51;;;;;;;23.70;6.13;;;;;;;;;;4976672;28;25094;-71
2023/10/13 12:19:24;;;;;;;14.05;6.65;;;;;;;;;;4995436;28;25062;-73
2023/10/13 12:21:54;;;;;;;22.98;6.85;;;;;;;;;;4998235;28;25082;-74
2023/10/13 12:24:39;;;;;;;21.30;6.25;;;;;;;;;;4995876;28;25056;-70
2023/10/13 12:27:18;;;;;;;16.60;6.93;;;;;;;;;;4994267;28;25055;-69
2023/10/13 12:29:46;;;;;;;19.10;6.38;;;;;;;;;;4992607;28;25130;-73
2023/10/13 12:32:13;;;;;;;15.68;6.50;;;;;;;;;;4993940;28;25075;-72
2023/10/13 12:53:54;;;;;;;20.27;7.25;;;;;;;;;;4990583;28;25059;-75
2023/10/13 12:56:28;;;;;;;20.92;6.65;;;;;;;;;;4972392;28;25056;-73
2023/10/13 12:58:54;;;;;;;18.83;6.15;;;;;;;;;;4990989;28;25046;-71
2023/10/13 13:01:25;;;;;;;15.70;6.70;;;;;;;;;;4992253;28;25157;-72
2023/10/13 13:03:55;;;;;;;20.70;6.90;;;;;;;;;;4989693;28;25137;-72
2023/10/13 13:06:24;;;;;;;14.65;7.07;;;;;;;;;;4977695;28;25087;-70
2023/10/13 13:08:51;;;;;;;15.77;7.03;;;;;;;;;;4989568;28;25082;-73
2023/10/13 13:11:17;;;;;;;15.02;6.25;;;;;;;;;;4991242;28;25066;-73
2023/10/13 13:13:46;;;;;;;14.35;6.25;;;;;;;;;;4991565;28;25072;-73
2023/10/13 13:16:12;;;;;;;18.65;7.07;;;;;;;;;;4976728;28;25051;-72
2023/10/13 13:18:39;;;;;;;16.13;6.90;;;;;;;;;;4988807;28;25153;-71
2023/10/13 13:21:06;;;;;;;25.90;7.18;;;;;;;;;;4990208;28;25055;-69
2023/10/13 13:23:34;;;;;;;21.52;7.38;;;;;;;;;;4988341;28;25063;-71
2023/10/13 13:26:00;;;;;;;14.77;7.50;;;;;;;;;;4987407;28;25057;-69
2023/10/13 13:28:28;;;;;;;16.50;7.80;;;;;;;;;;4988498;28;25051;-73
2023/10/13 13:30:55;;;;;;;15.02;6.20;;;;;;;;;;4970947;28;25056;-72
2023/10/13 13:33:25;;;;;;;17.67;6.07;;;;;;;;;;4989614;28;25061;-72
2023/10/13 13:35:55;;;;;;;15.85;6.72;;;;;;;;;;4988728;28;25086;-75
2023/10/13 13:38:27;;;;;;;16.80;6.68;;;;;;;;;;4988753;28;25071;-74
2023/10/13 13:40:56;;;;;;;16.60;6.55;;;;;;;;;;4988238;28;25053;-71
2023/10/13 13:43:37;;;;;;;18.38;7.88;;;;;;;;;;4986654;28;25095;-71
2023/10/13 13:46:03;;;;;;;16.45;6.43;;;;;;;;;;4990427;28;25065;-73
2023/10/13 13:48:30;;;;;;;18.65;6.63;;;;;;;;;;4988297;28;25073;-73
2023/10/13 13:51:04;;;;;;;16.65;7.35;;;;;;;;;;4970877;28;25079;-72
2023/10/13 13:53:34;;;;;;;26.00;7.35;;;;;;;;;;4987909;28;25076;-72
2023/10/13 13:56:01;;;;;;;26.10;7.50;;;;;;;;;;4989437;28;25070;-70
2023/10/13 13:58:27;;;;;;;19.70;6.70;;;;;;;;;;4986743;28;25125;-73
2023/10/13 14:00:58;;;;;;;14.70;6.13;;;;;;;;;;4988460;28;25054;-75
2023/10/13 14:03:33;;;;;;;20.57;7.33;;;;;;;;;;4987470;28;25113;-74
2023/10/13 14:05:59;;;;;;;16.05;7.70;;;;;;;;;;4987556;28;25071;-72
2023/10/13 14:08:27;;;;;;;19.48;7.32;;;;;;;;;;4988223;28;25082;-71
2023/10/13 14:13:52;;;;;;;23.17;7.55;;;;;;;;;;4999207;28;25097;-73
2023/10/13 14:16:22;;;;;;;20.52;7.15;;;;;;;;;;4983867;28;25054;-74
2023/10/13 14:18:50;;;;;;;22.42;7.13;;;;;;;;;;5010067;28;25071;-73
2023/10/13 14:21:19;;;;;;;15.25;7.13;;;;;;;;;;4997213;28;25084;-74
2023/10/13 14:23:53;;;;;;;18.42;6.45;;;;;;;;;;4980842;28;25125;-73
2023/10/13 14:26:25;;;;;;;26.67;6.70;;;;;;;;;;4993944;28;25058;-73
2023/10/13 14:29:08;;;;;;;15.45;6.38;;;;;;;;;;4990803;28;25106;-72
2023/10/13 14:31:37;;;;;;;20.50;6.35;;;;;;;;;;4983441;28;25160;-73
2023/10/13 14:34:03;;;;;;;19.38;6.78;;;;;;;;;;4987625;28;25121;-74
2023/10/13 14:36:34;;;;;;;12.90;5.65;;;;;;;;;;4986793;28;25055;-73
2023/10/13 14:39:00;;;;;;;14.02;6.05;;;;;;;;;;4987734;28;24767;-71
2023/10/13 14:41:26;;;;;;;11.52;5.65;;;;;;;;;;4989386;28;25073;-73
2023/10/13 14:43:52;;;;;;;19.50;6.43;;;;;;;;;;4987474;28;25085;-74
2023/10/13 14:46:22;;;;;;;20.55;6.68;;;;;;;;;;4989206;28;25127;-72
2023/10/13 14:48:49;;;;;;;17.02;6.70;;;;;;;;;;4991637;28;25058;-71
2023/10/13 14:51:18;;;;;;;15.10;6.25;;;;;;;;;;4987247;28;25098;-76
2023/10/13 14:53:44;;;;;;;19.77;7.13;;;;;;;;;;4990159;28;25088;-72
2023/10/13 14:56:17;;;;;;;20.15;6.97;;;;;;;;;;4993093;28;25063;-73
2023/10/13 14:58:44;;;;;;;14.60;6.20;;;;;;;;;;4995951;28;25082;-75
2023/10/13 15:01:15;;;;;;;22.95;8.07;;;;;;;;;;4994328;28;25077;-72
2023/10/13 15:03:41;;;;;;;16.42;7.38;;;;;;;;;;4992251;28;25054;-76
2023/10/13 15:06:07;;;;;;;19.98;7.32;;;;;;;;;;4992127;28;25066;-72
2023/10/13 15:08:33;;;;;;;23.38;7.20;;;;;;;;;;4993061;28;25068;-71
2023/10/13 15:11:12;;;;;;;25.17;6.63;;;;;;;;;;4990681;28;25054;-73
2023/10/13 15:13:38;;;;;;;22.40;7.20;;;;;;;;;;4989334;28;25094;-72
2023/10/13 15:16:13;;;;;;;16.08;7.15;;;;;;;;;;4991147;28;25094;-71
2023/10/13 15:18:40;;;;;;;20.85;7.55;;;;;;;;;;5002019;28;25130;-73
2023/10/13 15:21:08;;;;;;;17.80;7.00;;;;;;;;;;4999378;28;26158;-71
2023/10/13 15:23:42;;;;;;;19.20;7.05;;;;;;;;;;5002750;28;25101;-74
2023/10/13 15:26:09;;;;;;;14.88;6.25;;;;;;;;;;5004292;28;25102;-71
2023/10/13 15:28:37;;;;;;;19.02;8.05;;;;;;;;;;5005256;28;25068;-71
2023/10/13 15:31:22;;;;;;;14.88;5.90;;;;;;;;;;4996898;28;25076;-72
2023/10/13 15:33:52;;;;;;;21.58;6.88;;;;;;;;;;4999508;28;25119;-72
2023/10/13 15:36:19;;;;;;;20.40;7.43;;;;;;;;;;5001528;28;25067;-73
2023/10/13 15:38:46;;;;;;;28.10;7.35;;;;;;;;;;4996528;28;25112;-75
2023/10/13 15:41:12;;;;;;;16.48;7.03;;;;;;;;;;5002272;28;25063;-75
2023/10/13 15:43:42;;;;;;;17.02;6.28;;;;;;;;;;4992705;28;25055;-72
2023/10/13 15:46:15;;;;;;;18.63;6.28;;;;;;;;;;5001682;28;25078;-71
2023/10/13 15:48:41;;;;;;;16.17;5.72;;;;;;;;;;4991907;28;25061;-74
2023/10/13 15:51:13;;;;;;;15.60;6.43;;;;;;;;;;4996280;28;25098;-72
2023/10/13 15:53:39;;;;;;;16.38;5.95;;;;;;;;;;4992846;28;25066;-74
2023/10/13 15:56:11;;;;;;;16.10;6.68;;;;;;;;;;5000249;28;25114;-72
2023/10/13 15:58:45;;;;;;;21.05;7.35;;;;;;;;;;4993366;28;25093;-74
2023/10/13 16:01:12;;;;;;;13.48;6.50;;;;;;;;;;4999891;28;25058;-74
2023/10/13 16:03:39;;;;;;;17.13;7.15;;;;;;;;;;4982913;28;25127;-74
2023/10/13 16:06:09;;;;;;;17.42;7.43;;;;;;;;;;4998871;28;25085;-71
2023/10/13 16:08:35;;;;;;;17.73;7.55;;;;;;;;;;4989168;28;25099;-74
2023/10/13 16:11:07;;;;;;;15.25;6.95;;;;;;;;;;4993282;28;25076;-72
2023/10/13 16:13:33;;;;;;;20.90;8.20;;;;;;;;;;4985755;28;25059;-73
2023/10/13 16:16:00;;;;;;;19.00;7.68;;;;;;;;;;4994023;28;25203;-73
2023/10/13 16:18:26;;;;;;;21.15;7.05;;;;;;;;;;4998857;28;25086;-71
2023/10/13 16:20:52;;;;;;;20.30;7.28;;;;;;;;;;4997564;28;25075;-74
2023/10/13 16:23:19;;;;;;;19.33;7.25;;;;;;;;;;4988728;28;25063;-74
2023/10/13 16:25:45;;;;;;;17.30;7.45;;;;;;;;;;4993234;28;25056;-74
2023/10/13 16:28:12;;;;;;;17.67;7.32;;;;;;;;;;4992719;28;25082;-74
2023/10/13 16:30:38;;;;;;;20.42;7.35;;;;;;;;;;4986913;28;25069;-70
2023/10/13 16:33:05;;;;;;;21.17;7.63;;;;;;;;;;4995092;28;25109;-73
2023/10/13 16:35:33;;;;;;;19.27;6.90;;;;;;;;;;5002003;28;25048;-74
2023/10/13 16:38:06;;;;;;;21.67;7.93;;;;;;;;;;4985922;28;25083;-74
2023/10/13 16:40:32;;;;;;;18.63;7.03;;;;;;;;;;4994704;28;25091;-73
2023/10/13 16:43:00;;;;;;;16.60;7.15;;;;;;;;;;4993316;28;25154;-74
2023/10/13 16:45:31;;;;;;;19.88;7.55;;;;;;;;;;4989760;28;25073;-73
2023/10/13 16:47:57;;;;;;;22.63;7.38;;;;;;;;;;5001324;28;25077;-71
2023/10/13 16:50:23;;;;;;;21.70;8.60;;;;;;;;;;5006156;28;25105;-73
2023/10/13 16:52:49;;;;;;;26.42;7.78;;;;;;;;;;4998089;28;25089;-69
2023/10/13 16:55:17;;;;;;;23.27;8.23;;;;;;;;;;5000349;28;25135;-76
2023/10/13 16:57:44;;;;;;;16.52;9.18;;;;;;;;;;4993768;28;25049;-71
2023/10/13 17:00:11;;;;;;;26.40;9.05;;;;;;;;;;4997152;28;25071;-72
2023/10/13 17:02:41;;;;;;;20.45;8.50;;;;;;;;;;4985495;28;25091;-70
2023/10/13 17:05:08;;;;;;;27.83;8.60;;;;;;;;;;5000492;28;25071;-71
2023/10/13 17:07:35;;;;;;;15.95;7.97;;;;;;;;;;4979041;28;25091;-73
2023/10/13 17:10:01;;;;;;;16.50;8.02;;;;;;;;;;4991497;28;25071;-70
2023/10/13 17:12:29;;;;;;;15.57;7.90;;;;;;;;;;4992352;28;25059;-73
2023/10/13 17:14:57;;;;;;;19.42;8.20;;;;;;;;;;4995568;28;25051;-71
2023/10/13 17:17:23;;;;;;;15.80;7.70;;;;;;;;;;4987269;28;25031;-72
2023/10/13 17:19:49;;;;;;;15.75;7.70;;;;;;;;;;4993494;28;25055;-70
2023/10/13 17:22:17;;;;;;;18.65;8.82;;;;;;;;;;4988287;28;25442;-73
2023/10/13 17:24:43;;;;;;;22.67;8.55;;;;;;;;;;4991033;28;25071;-73
2023/10/13 17:27:09;;;;;;;22.95;8.20;;;;;;;;;;4968132;28;25139;-71
2023/10/13 17:29:35;;;;;;;19.80;9.13;;;;;;;;;;4985681;28;25080;-73
2023/10/13 17:32:02;;;;;;;16.05;8.50;;;;;;;;;;4983090;28;25138;-71
2023/10/13 17:34:28;;;;;;;22.95;9.30;;;;;;;;;;4985818;28;25145;-73
2023/10/13 17:36:57;;;;;;;20.65;9.52;;;;;;;;;;5000539;28;25060;-72
2023/10/13 17:39:24;;;;;;;23.05;9.80;;;;;;;;;;4984930;28;25073;-70
2023/10/13 17:41:51;;;;;;;20.30;8.52;;;;;;;;;;4987697;28;25106;-71
2023/10/13 17:44:17;;;;;;;18.90;8.95;;;;;;;;;;4989458;28;25157;-72
2023/10/13 17:46:43;;;;;;;19.50;9.02;;;;;;;;;;4992337;28;25089;-72
2023/10/13 17:49:09;;;;;;;20.35;9.43;;;;;;;;;;4985636;28;25067;-72
2023/10/13 17:51:35;;;;;;;26.58;10.80;;;;;;;;;;4995167;28;25082;-71
2023/10/13 17:54:01;;;;;;;22.63;9.25;;;;;;;;;;4977695;28;25166;-73
2023/10/13 17:56:27;;;;;;;26.65;10.43;;;;;;;;;;4975758;28;25077;-74
2023/10/13 17:58:53;;;;;;;27.80;10.77;;;;;;;;;;4971026;28;25138;-74
2023/10/13 18:01:20;;;;;;;18.67;10.38;;;;;;;;;;4966399;28;25063;-70
2023/10/13 18:03:53;;;;;;;30.73;13.15;;;;;;;;;;4994231;28;25082;-71
2023/10/13 18:06:20;;;;;;;27.08;10.40;;;;;;;;;;4968535;28;25049;-72